createdAt,value
2022-12-15T00:03:29.973Z,13.20
2022-12-15T00:08:50.000Z,12.88
2022-12-15T00:14:09.829Z,13.27
2022-12-15T00:19:29.887Z,13.60
2022-12-15T00:24:49.957Z,13.20
2022-12-15T00:30:09.801Z,13.70
2022-12-15T00:35:29.587Z,12.50
2022-12-15T00:40:30.851Z,13.23
2022-12-15T00:45:50.641Z,12.57
2022-12-15T00:50:54.688Z,11.50
2022-12-15T00:56:14.656Z,12.73
2022-12-15T01:01:34.667Z,12.27
2022-12-15T01:06:54.587Z,12.15
2022-12-15T01:12:14.455Z,11.80
2022-12-15T01:17:34.722Z,12.80
2022-12-15T01:22:36.741Z,11.85
2022-12-15T01:27:38.071Z,11.90
2022-12-15T01:32:44.308Z,11.52
2022-12-15T01:37:49.805Z,12.98
2022-12-15T01:42:51.616Z,11.67
2022-12-15T01:48:04.298Z,12.02
2022-12-15T01:53:05.583Z,11.55
2022-12-15T01:58:08.461Z,11.52
2022-12-15T02:03:10.295Z,12.38
2022-12-15T02:08:11.701Z,11.50
2022-12-15T02:13:19.528Z,11.95
2022-12-15T02:18:32.132Z,12.88
2022-12-15T02:23:51.497Z,12.27
2022-12-15T02:29:01.530Z,11.93
2022-12-15T02:34:11.222Z,11.87
2022-12-15T02:39:12.941Z,11.70
2022-12-15T02:44:29.116Z,12.38
2022-12-15T02:49:43.000Z,13.05
2022-12-15T02:55:07.331Z,14.60
2022-12-15T03:00:10.464Z,11.10
2022-12-15T03:05:12.834Z,12.20
2022-12-15T03:10:14.935Z,11.15
2022-12-15T03:15:17.002Z,11.93
2022-12-15T03:20:18.284Z,11.98
2022-12-15T03:25:19.551Z,11.70
2022-12-15T03:30:20.865Z,12.35
2022-12-15T03:35:22.128Z,12.13
2022-12-15T03:40:23.403Z,12.00
2022-12-15T03:45:26.014Z,12.38
2022-12-15T03:50:28.724Z,11.77
2022-12-15T03:55:30.801Z,11.50
2022-12-15T04:00:32.138Z,12.05
2022-12-15T04:05:34.318Z,11.60
2022-12-15T04:10:35.876Z,11.65
2022-12-15T04:15:38.259Z,11.90
2022-12-15T04:20:40.209Z,13.98
2022-12-15T04:25:59.980Z,12.25
2022-12-15T04:31:24.996Z,12.15
2022-12-15T04:36:45.560Z,12.23
2022-12-15T04:42:05.775Z,12.90
2022-12-15T04:47:25.485Z,13.02
2022-12-15T04:52:46.413Z,12.82
2022-12-15T04:58:06.189Z,14.05
2022-12-15T05:03:26.630Z,13.23
2022-12-15T05:08:46.454Z,13.57
2022-12-15T05:14:10.142Z,12.93
2022-12-15T05:19:29.897Z,14.32
2022-12-15T05:24:49.732Z,13.60
2022-12-15T05:30:09.487Z,13.10
2022-12-15T05:35:10.794Z,13.60
2022-12-15T05:40:12.241Z,14.57
2022-12-15T05:45:13.573Z,14.60
2022-12-15T05:50:14.946Z,13.57
2022-12-15T05:55:16.828Z,16.17
2022-12-15T06:00:18.264Z,15.10
2022-12-15T06:05:19.536Z,15.90
2022-12-15T06:10:20.774Z,14.38
2022-12-15T06:15:22.014Z,21.75
2022-12-15T06:20:23.279Z,16.98
2022-12-15T06:25:24.526Z,18.93
2022-12-15T06:30:25.816Z,15.38
2022-12-15T06:35:27.091Z,16.45
2022-12-15T06:40:31.005Z,17.38
2022-12-15T06:45:35.023Z,16.92
2022-12-15T06:50:36.357Z,16.40
2022-12-15T06:55:37.730Z,17.85
2022-12-15T07:00:39.558Z,15.38
2022-12-15T07:05:40.864Z,15.95
2022-12-15T07:10:44.034Z,15.30
2022-12-15T07:15:45.308Z,15.60
2022-12-15T07:20:46.577Z,15.43
2022-12-15T07:25:51.206Z,16.42
2022-12-15T07:30:52.530Z,15.73
2022-12-15T07:35:54.554Z,15.25
2022-12-15T07:40:59.699Z,15.97
2022-12-15T07:46:01.051Z,16.73
2022-12-15T07:51:10.952Z,16.67
2022-12-15T07:56:17.333Z,15.82
2022-12-15T08:01:19.064Z,16.42
2022-12-15T08:06:20.464Z,18.60
2022-12-15T08:11:22.562Z,15.07
2022-12-15T08:16:23.910Z,14.38
2022-12-15T08:21:25.222Z,15.90
2022-12-15T08:26:30.354Z,15.57
2022-12-15T08:31:33.769Z,16.30
2022-12-15T08:36:35.107Z,15.10
2022-12-15T08:41:36.550Z,16.67
2022-12-15T08:46:37.832Z,17.90
2022-12-15T08:51:39.105Z,16.70
2022-12-15T08:56:40.397Z,18.93
2022-12-15T09:01:43.272Z,18.38
2022-12-15T09:06:44.614Z,17.88
2022-12-15T09:11:51.592Z,15.80
2022-12-15T09:16:52.959Z,16.40
2022-12-15T09:21:54.418Z,20.43
2022-12-15T09:26:56.267Z,18.20
2022-12-15T09:31:57.569Z,15.63
2022-12-15T09:36:58.889Z,16.45
2022-12-15T09:42:00.866Z,15.70
2022-12-15T09:47:02.178Z,16.57
2022-12-15T09:52:10.714Z,15.55
2022-12-15T09:57:27.636Z,15.00
2022-12-15T10:02:42.551Z,14.95
2022-12-15T10:07:46.384Z,16.08
2022-12-15T10:13:01.062Z,15.83
2022-12-15T10:18:42.065Z,16.00
2022-12-15T10:23:43.407Z,16.45
2022-12-15T10:29:01.007Z,15.52
2022-12-15T10:34:10.072Z,15.75
2022-12-15T10:39:14.405Z,15.13
2022-12-15T10:44:31.878Z,15.55
2022-12-15T10:49:33.574Z,15.90
2022-12-15T10:54:36.516Z,15.38
2022-12-15T10:59:38.503Z,15.40
2022-12-15T11:04:39.860Z,14.93
2022-12-15T11:09:49.125Z,16.35
2022-12-15T11:14:52.488Z,16.95
2022-12-15T11:20:03.014Z,16.70
2022-12-15T11:25:19.858Z,15.88
2022-12-15T11:30:22.550Z,16.10
2022-12-15T11:35:27.461Z,16.23
2022-12-15T11:40:41.849Z,16.42
2022-12-15T11:46:06.938Z,16.08
2022-12-15T11:51:20.808Z,14.30
2022-12-15T11:56:28.187Z,15.80
2022-12-15T12:01:55.461Z,14.45
2022-12-15T12:07:09.459Z,15.98
2022-12-15T12:12:14.673Z,15.23
2022-12-15T12:17:37.682Z,16.38
2022-12-15T12:22:44.358Z,16.10
2022-12-15T12:27:54.426Z,15.10
2022-12-15T12:33:14.510Z,16.90
2022-12-15T12:38:20.149Z,15.27
2022-12-15T12:43:27.426Z,15.77
2022-12-15T12:48:31.836Z,16.47
2022-12-15T12:53:34.266Z,15.32
2022-12-15T12:58:42.160Z,15.68
2022-12-15T13:03:43.609Z,15.73
2022-12-15T13:08:49.167Z,14.93
2022-12-15T13:13:53.371Z,14.90
2022-12-15T13:19:03.189Z,16.75
2022-12-15T13:24:04.542Z,15.68
2022-12-15T13:29:09.118Z,15.00
2022-12-15T13:34:17.990Z,15.25
2022-12-15T13:39:19.297Z,14.67
2022-12-15T13:44:27.236Z,13.55
2022-12-15T13:49:43.178Z,17.40
2022-12-15T13:54:52.430Z,14.90
2022-12-15T14:00:01.223Z,14.68
2022-12-15T14:05:14.507Z,13.73
2022-12-15T14:10:17.681Z,14.55
2022-12-15T14:15:20.719Z,13.90
2022-12-15T14:20:26.585Z,17.60
2022-12-15T14:25:29.337Z,14.80
2022-12-15T14:30:32.889Z,14.67
2022-12-15T14:35:44.978Z,15.70
2022-12-15T14:40:52.005Z,14.10
2022-12-15T14:45:55.126Z,15.73
2022-12-15T14:51:00.997Z,16.13
2022-12-15T14:56:25.676Z,14.90
2022-12-15T15:01:57.728Z,16.42
2022-12-15T15:07:01.243Z,15.98
2022-12-15T15:12:04.685Z,15.70
2022-12-15T15:17:24.693Z,13.57
2022-12-15T15:22:42.523Z,17.60
2022-12-15T15:27:43.808Z,14.63
2022-12-15T15:32:51.462Z,13.98
2022-12-15T15:37:54.764Z,14.90
2022-12-15T15:42:56.012Z,16.23
2022-12-15T15:47:57.255Z,13.70
2022-12-15T15:52:58.563Z,15.18
2022-12-15T15:57:59.849Z,16.85
2022-12-15T16:03:01.382Z,17.17
2022-12-15T16:08:03.704Z,15.20
2022-12-15T16:13:04.942Z,20.67
2022-12-15T16:18:06.259Z,19.13
2022-12-15T16:23:12.558Z,15.32
2022-12-15T16:28:17.965Z,15.35
2022-12-15T16:33:19.316Z,16.42
2022-12-15T16:38:20.595Z,15.37
2022-12-15T16:43:23.014Z,14.70
2022-12-15T16:48:24.652Z,14.23
2022-12-15T16:53:27.079Z,14.10
2022-12-15T16:58:29.477Z,15.63
2022-12-15T17:03:31.331Z,15.53
2022-12-15T17:08:37.092Z,15.65
2022-12-15T17:13:45.363Z,14.95
2022-12-15T17:18:46.851Z,15.75
2022-12-15T17:23:49.401Z,15.68
2022-12-15T17:28:51.068Z,14.47
2022-12-15T17:33:52.809Z,15.15
2022-12-15T17:38:58.274Z,15.00
2022-12-15T17:44:31.153Z,15.30
2022-12-15T17:49:21.432Z,17.50
2022-12-15T17:54:22.713Z,18.87
2022-12-15T17:59:23.955Z,17.27
2022-12-15T18:04:25.266Z,19.17
2022-12-15T18:09:26.924Z,15.75
2022-12-15T18:14:30.557Z,14.35
2022-12-15T18:19:35.061Z,16.00
2022-12-15T18:24:36.555Z,15.95
2022-12-15T18:29:37.953Z,16.80
2022-12-15T18:34:39.320Z,16.60
2022-12-15T18:39:40.586Z,17.48
2022-12-15T18:44:45.097Z,16.47
2022-12-15T18:49:46.660Z,15.82
2022-12-15T18:54:49.128Z,16.33
2022-12-15T18:59:50.418Z,15.30
2022-12-15T19:04:51.639Z,16.60
2022-12-15T19:09:53.152Z,14.80
2022-12-15T19:14:55.220Z,18.45
2022-12-15T19:20:15.317Z,17.45
2022-12-15T19:25:24.989Z,16.17
2022-12-15T19:30:30.872Z,16.58
2022-12-15T19:35:33.113Z,15.47
2022-12-15T19:40:35.248Z,15.20
2022-12-15T19:45:36.668Z,14.73
2022-12-15T19:50:38.919Z,15.40
2022-12-15T19:55:40.458Z,17.08
2022-12-15T20:00:41.741Z,15.37
2022-12-15T20:05:43.781Z,14.55
2022-12-15T20:10:46.303Z,14.52
2022-12-15T20:15:47.935Z,13.90
2022-12-15T20:20:49.629Z,14.32
2022-12-15T20:25:50.904Z,13.93
2022-12-15T20:30:52.774Z,14.18
2022-12-15T20:35:54.214Z,13.95
2022-12-15T20:40:56.692Z,13.90
2022-12-15T20:46:01.635Z,14.38
2022-12-15T20:51:08.837Z,13.53
2022-12-15T20:56:10.791Z,13.63
2022-12-15T21:01:24.041Z,13.30
2022-12-15T21:06:26.427Z,12.77
2022-12-15T21:11:28.326Z,13.43
2022-12-15T21:16:30.684Z,12.10
2022-12-15T21:21:33.680Z,11.45
2022-12-15T21:26:34.902Z,12.60
2022-12-15T21:31:36.141Z,11.98
2022-12-15T21:36:38.331Z,12.00
2022-12-15T21:41:42.880Z,12.50
2022-12-15T21:46:44.208Z,12.57
2022-12-15T21:51:51.897Z,12.25
2022-12-15T21:56:53.616Z,12.02
2022-12-15T22:01:56.922Z,11.48
2022-12-15T22:06:58.230Z,11.33
2022-12-15T22:11:59.516Z,12.07
2022-12-15T22:17:01.505Z,11.82
2022-12-15T22:22:02.762Z,11.73
2022-12-15T22:27:04.035Z,11.75
2022-12-15T22:32:12.391Z,11.50
2022-12-15T22:37:13.643Z,12.82
2022-12-15T22:42:16.723Z,11.75
2022-12-15T22:47:18.000Z,11.63
2022-12-15T22:52:20.592Z,11.23
2022-12-15T22:57:26.381Z,9.90
2022-12-15T23:02:29.307Z,11.57
2022-12-15T23:07:30.711Z,10.77
2022-12-15T23:12:31.944Z,10.35
2022-12-15T23:17:33.842Z,10.70
2022-12-15T23:22:35.137Z,10.67
2022-12-15T23:27:36.407Z,10.65
2022-12-15T23:32:38.627Z,11.68
2022-12-15T23:37:39.921Z,12.60
2022-12-15T23:42:41.188Z,10.90
2022-12-15T23:47:42.484Z,11.17
2022-12-15T23:52:43.858Z,11.00
2022-12-15T23:57:45.194Z,9.95
